Time;durP1;ratioP1;P1;durP2;ratioP2;P2;SDS_P1;SDS_P2;PMS_P1;PMS_P2;Temp;Humidity;BMP_temperature;BMP_pressure;BME280_temperature;BME280_humidity;BME280_pressure;Samples;Min_cycle;Max_cycle;Signal;HPM_P1;HPM_P2
2021/08/23 12:54:38;;;;;;;212.37;84.83;;;;;;;-147.76;100.00;56387.28;7248347;19;94672;-66
2021/08/23 12:59:56;;;;;;;207.03;78.10;;;;;;;25.56;100.00;101996.03;6740237;19;20461;-60
2021/08/23 13:24:03;;;;;;;189.70;87.53;;;;;;;-147.76;100.00;56387.28;7296490;19;20457;-62
2021/08/23 13:26:32;;;;;;;158.17;60.70;;;;;;;25.14;100.00;101999.56;7289345;19;20654;-69
2021/08/23 13:29:02;;;;;;;139.90;54.87;;;;;;;25.02;100.00;102004.84;7365634;19;20459;-63
2021/08/23 13:31:31;;;;;;;173.27;63.83;;;;;;;24.98;100.00;102005.69;7282610;19;20775;-65
2021/08/23 13:34:01;;;;;;;96.50;41.67;;;;;;;25.03;100.00;102004.81;7107874;19;5011788;-64
2021/08/23 13:36:31;;;;;;;64.60;32.23;;;;;;;25.06;100.00;102001.28;7426408;19;20621;-62
2021/08/23 13:39:03;;;;;;;40.07;24.40;;;;;;;24.97;100.00;102009.22;7385822;19;20470;-63
2021/08/23 13:41:32;;;;;;;38.73;24.43;;;;;;;24.84;100.00;102009.19;7407645;19;20796;-63
2021/08/23 13:44:02;;;;;;;34.57;18.23;;;;;;;24.73;100.00;102011.78;7434022;19;20417;-62
2021/08/23 13:46:32;;;;;;;27.13;17.07;;;;;;;24.70;100.00;102003.00;7430205;19;20480;-63
2021/08/23 13:49:01;;;;;;;24.53;17.10;;;;;;;24.64;100.00;102001.19;7437725;19;20419;-63
2021/08/23 13:51:31;;;;;;;30.60;18.40;;;;;;;24.63;100.00;102002.97;7429228;19;21079;-63
2021/08/23 13:54:03;;;;;;;33.00;17.50;;;;;;;24.58;100.00;101999.44;7434094;19;20394;-63
2021/08/23 13:56:32;;;;;;;20.60;13.77;;;;;;;24.53;100.00;101994.16;7426918;19;20439;-63
2021/08/23 13:59:02;;;;;;;22.83;14.93;;;;;;;24.53;100.00;101998.53;7434037;19;20412;-63
2021/08/23 14:01:33;;;;;;;34.07;16.33;;;;;;;24.55;100.00;101999.41;7429250;19;20437;-63
2021/08/23 14:04:03;;;;;;;27.47;15.90;;;;;;;24.61;100.00;102001.22;7434813;19;20400;-63
2021/08/23 14:06:32;;;;;;;22.70;14.63;;;;;;;24.63;100.00;102002.09;7430133;19;20409;-63
2021/08/23 14:09:04;;;;;;;22.30;13.93;;;;;;;24.65;100.00;102002.97;7437418;19;20707;-63
2021/08/23 14:11:34;;;;;;;22.93;12.90;;;;;;;24.67;100.00;101996.81;7429878;19;20418;-63
2021/08/23 14:14:04;;;;;;;17.87;12.13;;;;;;;24.65;100.00;102002.97;7436825;19;20415;-63
2021/08/23 14:16:34;;;;;;;18.50;11.17;;;;;;;24.60;100.00;102002.94;7429977;19;20400;-63
2021/08/23 14:19:03;;;;;;;15.43;9.60;;;;;;;24.47;100.00;102016.97;7436371;19;20668;-63
2021/08/23 14:21:33;;;;;;;12.17;8.13;;;;;;;24.37;100.00;102010.78;7429388;19;20726;-63
2021/08/23 14:24:05;;;;;;;12.80;7.70;;;;;;;24.34;100.00;102009.03;7434343;19;20751;-63
2021/08/23 14:26:35;;;;;;;14.80;8.90;;;;;;;24.28;100.00;102014.28;7429871;19;20403;-64
2021/08/23 14:29:05;;;;;;;12.87;8.47;;;;;;;24.32;100.00;102015.16;7436893;19;20461;-64
2021/08/23 14:31:34;;;;;;;13.03;8.20;;;;;;;24.35;100.00;102016.06;7429352;19;20425;-63
2021/08/23 14:34:06;;;;;;;11.23;7.17;;;;;;;24.37;100.00;102014.31;7422200;19;20423;-63
2021/08/23 14:36:36;;;;;;;12.33;7.33;;;;;;;24.45;100.00;102005.56;7400528;19;20399;-63
2021/08/23 14:39:08;;;;;;;16.07;7.77;;;;;;;24.49;100.00;102015.22;7407780;19;20383;-63
2021/08/23 14:41:38;;;;;;;10.07;6.03;;;;;;;24.46;100.00;102017.88;7400417;19;20429;-63
2021/08/23 14:44:08;;;;;;;9.67;6.27;;;;;;;24.44;100.00;102022.25;7405669;19;20397;-63
2021/08/23 14:46:37;;;;;;;10.87;7.23;;;;;;;24.48;100.00;102024.00;7400543;19;20469;-63
2021/08/23 14:49:07;;;;;;;9.87;5.80;;;;;;;24.48;100.00;102018.75;7407244;19;20397;-63
2021/08/23 14:51:37;;;;;;;8.37;5.13;;;;;;;24.48;100.00;102018.75;7397306;19;20429;-63
2021/08/23 14:54:09;;;;;;;9.80;4.70;;;;;;;24.46;100.00;102020.50;7406694;19;20406;-63
2021/08/23 14:56:39;;;;;;;7.83;5.40;;;;;;;24.44;100.00;102024.91;7377766;19;20705;-64
2021/08/23 14:59:08;;;;;;;14.90;5.90;;;;;;;24.42;100.00;102027.53;7406042;19;20408;-64
2021/08/23 15:01:38;;;;;;;7.43;4.83;;;;;;;24.46;100.00;102033.69;7395128;19;20509;-64
2021/08/23 15:04:08;;;;;;;9.37;4.70;;;;;;;24.45;100.00;102032.78;7405347;19;20395;-64
2021/08/23 15:06:37;;;;;;;7.90;3.87;;;;;;;24.50;100.00;102035.47;7399825;19;20726;-63
2021/08/23 15:09:09;;;;;;;7.93;4.37;;;;;;;24.50;100.00;102033.69;7407017;19;20404;-64
2021/08/23 15:11:39;;;;;;;7.60;4.00;;;;;;;24.53;100.00;102035.47;7399111;19;20489;-64
2021/08/23 15:14:08;;;;;;;8.20;4.33;;;;;;;24.50;100.00;102035.47;7406211;19;20394;-64
2021/08/23 15:16:38;;;;;;;7.40;4.30;;;;;;;24.47;100.00;102028.44;7399281;19;20386;-64
2021/08/23 15:19:08;;;;;;;6.17;4.00;;;;;;;24.46;100.00;102034.53;7406431;19;20394;-63
2021/08/23 15:21:37;;;;;;;6.43;3.77;;;;;;;24.50;100.00;102046.03;7399254;19;20438;-63
2021/08/23 15:24:10;;;;;;;5.87;3.47;;;;;;;24.49;100.00;102038.97;7404787;19;20472;-64
2021/08/23 15:26:39;;;;;;;5.40;3.60;;;;;;;24.45;100.00;102043.34;7398978;19;20713;-65
2021/08/23 15:29:09;;;;;;;6.90;4.00;;;;;;;24.45;100.00;102047.75;7406240;19;20394;-64
2021/08/23 15:31:38;;;;;;;6.30;3.60;;;;;;;24.50;100.00;102044.25;7400015;19;20429;-63
2021/08/23 15:34:08;;;;;;;5.27;3.43;;;;;;;24.50;100.00;102046.88;7405893;19;20402;-63
2021/08/23 15:36:38;;;;;;;6.70;3.43;;;;;;;24.48;100.00;102042.47;7398885;19;20398;-64
2021/08/23 15:39:11;;;;;;;4.87;3.40;;;;;;;24.41;100.00;102042.44;7405946;19;20396;-64
2021/08/23 15:41:40;;;;;;;6.20;3.27;;;;;;;24.38;100.00;102047.72;7398291;19;20422;-64
2021/08/23 15:44:10;;;;;;;6.67;3.63;;;;;;;24.37;100.00;102045.06;7404336;19;20458;-64
2021/08/23 15:46:41;;;;;;;5.83;3.40;;;;;;;24.33;100.00;102054.72;7395573;19;20413;-65
2021/08/23 15:49:11;;;;;;;4.60;2.67;;;;;;;24.31;100.00;102045.94;7405642;19;20398;-64
2021/08/23 15:51:40;;;;;;;5.50;3.10;;;;;;;24.31;100.00;102043.31;7397027;19;20488;-64
2021/08/23 15:54:12;;;;;;;4.70;2.93;;;;;;;24.29;100.00;102050.31;7406013;19;20400;-63
2021/08/23 15:56:42;;;;;;;5.20;2.90;;;;;;;24.31;100.00;102042.41;7397885;19;20401;-63
2021/08/23 15:59:12;;;;;;;6.50;3.30;;;;;;;24.29;100.00;102047.66;7404932;19;20720;-63
2021/08/23 16:01:42;;;;;;;4.10;2.80;;;;;;;24.27;100.00;102050.28;7397864;19;20435;-64
2021/08/23 16:04:12;;;;;;;4.60;2.90;;;;;;;24.39;100.00;102043.31;7377406;19;20448;-67
2021/08/23 16:06:41;;;;;;;4.67;2.40;;;;;;;24.29;100.00;102037.13;7393954;19;21176;-70
2021/08/23 16:09:13;;;;;;;5.13;2.87;;;;;;;24.26;100.00;102047.66;7405765;19;20410;-65
2021/08/23 16:11:44;;;;;;;6.23;2.90;;;;;;;24.29;100.00;102041.53;7371104;19;20534;-68
2021/08/23 16:52:21;;;;;;;450.77;119.73;;;;;;;24.34;100.00;102056.47;7383016;19;20936;-64
2021/08/23 16:59:52;;;;;;;10.03;5.70;;;;;;;21.08;100.00;102056.13;7246375;19;20484;-59
2021/08/23 17:02:21;;;;;;;11.10;4.80;;;;;;;20.71;100.00;102054.50;7367921;19;20437;-59
2021/08/23 17:04:51;;;;;;;8.17;3.40;;;;;;;20.27;100.00;102057.09;7434508;19;20389;-58
2021/08/23 17:07:28;;;;;;;11.37;6.90;;;;;;;20.34;100.00;102054.63;7428268;19;20459;-58
2021/08/23 17:09:58;;;;;;;7.50;5.00;;;;;;;20.29;100.00;102051.03;7433405;19;20490;-56
2021/08/23 17:12:27;;;;;;;20.03;11.70;;;;;;;20.31;100.00;102049.31;7403028;19;20420;-54
2021/08/23 17:14:59;;;;;;;7.20;4.13;;;;;;;20.19;100.00;102047.31;7433864;19;20394;-55
2021/08/23 17:17:42;;;;;;;14.77;6.30;;;;;;;20.16;100.00;102056.84;7406553;19;20429;-56
2021/08/23 17:20:13;;;;;;;19.30;5.43;;;;;;;20.01;100.00;102045.19;7433597;19;20450;-50
2021/08/23 17:22:42;;;;;;;10.97;6.20;;;;;;;19.88;100.00;102064.06;7401849;19;21113;-55
2021/08/23 17:25:12;;;;;;;6.93;2.73;;;;;;;19.89;100.00;102055.34;7433765;19;20387;-55
2021/08/23 17:27:42;;;;;;;5.13;2.83;;;;;;;19.80;100.00;102054.25;7402949;19;20422;-55
2021/08/23 17:30:15;;;;;;;5.77;3.10;;;;;;;19.65;100.00;102052.13;7433162;19;20443;-54
2021/08/23 17:32:44;;;;;;;12.70;6.00;;;;;;;19.69;100.00;102056.63;7402298;19;20481;-57
2021/08/23 17:35:14;;;;;;;18.97;9.43;;;;;;;19.69;100.00;102054.00;7433406;19;20408;-57
2021/08/23 17:37:43;;;;;;;15.03;7.53;;;;;;;19.68;100.00;102059.19;7404430;19;20462;-55
2021/08/23 17:40:14;;;;;;;8.03;4.57;;;;;;;19.58;100.00;102055.47;7432646;19;20845;-54
2021/08/23 17:42:43;;;;;;;4.50;2.70;;;;;;;19.55;100.00;102066.72;7402037;19;20405;-55
2021/08/23 17:45:16;;;;;;;8.80;4.10;;;;;;;19.56;100.00;102068.53;7432998;19;20450;-55
2021/08/23 17:47:46;;;;;;;5.83;2.93;;;;;;;19.46;100.00;102074.38;7421437;19;20426;-57
2021/08/23 17:50:16;;;;;;;6.17;3.17;;;;;;;19.43;100.00;102079.50;7433031;19;20865;-57
2021/08/23 17:52:46;;;;;;;7.23;3.30;;;;;;;19.37;100.00;102081.97;7397111;19;20465;-56
2021/08/23 17:55:16;;;;;;;12.77;5.60;;;;;;;19.33;100.00;102080.13;7433203;19;20455;-56
2021/08/23 17:57:45;;;;;;;13.20;8.20;;;;;;;19.32;100.00;102088.84;7400264;19;20406;-55
2021/08/23 18:00:18;;;;;;;6.90;3.00;;;;;;;19.22;100.00;102083.34;7429384;19;20379;-55
2021/08/23 18:02:47;;;;;;;11.83;3.40;;;;;;;19.23;100.00;102084.22;7419751;19;20419;-54
2021/08/23 18:05:17;;;;;;;22.03;12.63;;;;;;;19.18;100.00;102091.97;7432801;19;20390;-55
2021/08/23 18:07:47;;;;;;;3.83;1.90;;;;;;;18.97;100.00;102085.25;7422833;19;20458;-56
2021/08/23 18:10:16;;;;;;;6.90;3.07;;;;;;;18.95;100.00;102089.56;7414371;19;20438;-54
2021/08/23 18:12:46;;;;;;;4.30;2.90;;;;;;;18.91;100.00;102098.13;7368330;19;20520;-55
2021/08/23 18:15:18;;;;;;;4.30;2.30;;;;;;;18.79;100.00;102097.78;7403365;19;20396;-56
2021/08/23 18:17:48;;;;;;;7.10;2.80;;;;;;;18.75;100.00;102087.25;7399869;19;20415;-55
2021/08/23 18:20:18;;;;;;;9.30;4.17;;;;;;;18.66;100.00;102097.44;7401014;19;20396;-55
2021/08/23 18:22:47;;;;;;;5.10;3.20;;;;;;;18.61;100.00;102099.91;7367296;19;20871;-57
2021/08/23 18:25:17;;;;;;;7.77;2.70;;;;;;;18.57;100.00;102105.88;7403161;19;20483;-55
2021/08/23 18:27:46;;;;;;;3.50;1.90;;;;;;;18.48;100.00;102103.91;7374407;19;20423;-55
2021/08/23 18:30:20;;;;;;;5.00;2.30;;;;;;;18.41;100.00;102106.28;7404048;19;20905;-56
2021/08/23 18:32:49;;;;;;;4.33;2.73;;;;;;;18.39;100.00;102108.84;7375961;19;20395;-56
2021/08/23 18:35:19;;;;;;;9.73;2.50;;;;;;;18.29;100.00;102117.22;7402757;19;20459;-57
2021/08/23 18:37:48;;;;;;;6.23;2.93;;;;;;;18.21;100.00;102115.25;7370028;19;20407;-54
2021/08/23 18:40:19;;;;;;;8.80;2.97;;;;;;;18.34;100.00;102115.63;7400362;19;20388;-53
2021/08/23 18:42:48;;;;;;;3.80;2.53;;;;;;;18.34;100.00;102120.84;7384284;19;20418;-52
2021/08/23 18:45:20;;;;;;;9.53;2.80;;;;;;;18.20;100.00;102118.69;7403003;19;20388;-55
2021/08/23 18:47:49;;;;;;;7.67;2.50;;;;;;;18.11;100.00;102122.75;7383746;19;20949;-57
2021/08/23 18:50:19;;;;;;;6.30;2.20;;;;;;;18.03;100.00;102125.06;7402446;19;20388;-56
2021/08/23 18:52:49;;;;;;;5.50;2.43;;;;;;;18.03;100.00;102130.28;7369853;19;20917;-55
2021/08/23 18:55:18;;;;;;;4.43;2.90;;;;;;;17.97;100.00;102130.09;7402361;19;20459;-55
2021/08/23 18:57:48;;;;;;;3.97;2.53;;;;;;;17.86;100.00;102125.41;7371189;19;20409;-56
2021/08/23 19:00:21;;;;;;;5.43;1.90;;;;;;;17.68;100.00;102130.88;7399874;19;20413;-56
2021/08/23 19:02:50;;;;;;;4.93;2.57;;;;;;;17.59;100.00;102136.66;7373097;19;20395;-55
2021/08/23 19:05:20;;;;;;;5.50;2.80;;;;;;;17.47;100.00;102136.25;7402086;19;20392;-55
2021/08/23 19:07:51;;;;;;;5.10;2.57;;;;;;;17.31;100.00;102137.41;7398001;19;20463;-57
2021/08/23 19:10:21;;;;;;;4.90;2.23;;;;;;;17.23;100.00;102145.00;7401831;19;20388;-57
2021/08/23 19:12:50;;;;;;;4.87;2.87;;;;;;;17.14;100.00;102141.19;7371967;19;20478;-57
2021/08/23 19:15:23;;;;;;;8.10;3.07;;;;;;;17.11;100.00;102133.28;7401733;19;20682;-53
2021/08/23 19:17:52;;;;;;;5.70;3.00;;;;;;;17.03;100.00;102147.75;7368519;19;20427;-56
2021/08/23 19:20:23;;;;;;;6.70;2.57;;;;;;;16.97;100.00;102134.47;7399559;19;20421;-55
2021/08/23 19:22:52;;;;;;;5.03;2.83;;;;;;;16.94;100.00;102143.06;7370582;19;20407;-56
2021/08/23 19:25:22;;;;;;;4.33;2.80;;;;;;;16.97;100.00;102139.69;7401110;19;20392;-57
2021/08/23 19:27:51;;;;;;;4.00;2.50;;;;;;;16.87;100.00;102149.75;7395845;19;20426;-56
2021/08/23 19:30:24;;;;;;;6.00;2.57;;;;;;;16.88;100.00;102146.31;7401706;19;20685;-52
2021/08/23 19:32:53;;;;;;;5.10;2.60;;;;;;;16.82;100.00;102150.41;7392988;19;20479;-54
2021/08/23 19:35:23;;;;;;;4.07;2.30;;;;;;;16.72;100.00;102152.66;7400913;19;20467;-57
2021/08/23 19:38:08;;;;;;;5.50;2.70;;;;;;;16.64;100.00;102161.00;7394666;19;20451;-54
2021/08/23 19:40:38;;;;;;;4.97;2.50;;;;;;;16.55;100.00;102164.13;7399209;19;20398;-56
2021/08/23 19:43:08;;;;;;;3.83;2.03;;;;;;;16.49;100.00;102170.00;7393544;19;20415;-54
2021/08/23 19:45:41;;;;;;;3.30;2.40;;;;;;;16.50;100.00;102165.69;7400220;19;20714;-56
2021/08/23 19:48:10;;;;;;;7.43;3.10;;;;;;;16.45;100.00;102175.91;7388958;19;20945;-57
2021/08/23 19:50:39;;;;;;;3.90;2.60;;;;;;;16.42;100.00;102167.97;7401388;19;20402;-57
2021/08/23 19:53:09;;;;;;;7.67;2.70;;;;;;;16.39;100.00;102170.44;7387912;19;20487;-53
2021/08/23 19:55:39;;;;;;;4.00;2.30;;;;;;;16.40;100.00;102169.63;7400058;19;20458;-57
2021/08/23 19:58:11;;;;;;;9.33;2.77;;;;;;;16.41;100.00;102177.50;7394232;19;20417;-58
2021/08/23 20:00:41;;;;;;;7.53;3.30;;;;;;;16.52;100.00;102183.16;7399020;19;20384;-56
2021/08/23 20:03:10;;;;;;;5.07;3.13;;;;;;;16.53;100.00;102181.41;7387071;19;20422;-55
2021/08/23 20:05:41;;;;;;;5.23;2.83;;;;;;;16.44;100.00;102180.25;7399778;19;20379;-57
2021/08/23 20:08:10;;;;;;;7.63;2.57;;;;;;;16.40;100.00;102186.13;7389500;19;20928;-54
2021/08/23 20:10:40;;;;;;;4.83;2.77;;;;;;;16.32;100.00;102188.41;7401616;19;20409;-56
2021/08/23 20:13:15;;;;;;;7.20;4.30;;;;;;;16.36;100.00;102191.16;7385748;19;20443;-56
2021/08/23 20:15:46;;;;;;;6.63;3.17;;;;;;;16.29;100.00;102193.53;7403404;19;20406;-58
2021/08/23 20:18:16;;;;;;;5.50;3.13;;;;;;;16.24;100.00;102188.97;7387743;19;20515;-58
2021/08/23 20:20:47;;;;;;;4.93;3.00;;;;;;;16.17;100.00;102190.41;7402523;19;20404;-57
2021/08/23 20:23:19;;;;;;;5.30;2.60;;;;;;;16.05;100.00;102199.47;7392531;19;20466;-56
2021/08/23 20:25:49;;;;;;;6.47;3.30;;;;;;;16.03;100.00;102200.25;7402948;19;20671;-57
2021/08/23 20:28:38;;;;;;;5.87;3.33;;;;;;;16.11;100.00;102200.56;7364729;19;20426;-56
2021/08/23 20:31:08;;;;;;;11.97;3.63;;;;;;;15.94;100.00;102200.72;7403210;19;20721;-57
2021/08/23 20:33:45;;;;;;;9.33;3.73;;;;;;;15.78;100.00;102206.97;7395495;19;20439;-57
2021/08/23 20:36:26;;;;;;;5.77;3.73;;;;;;;15.75;100.00;102209.44;7402031;19;20448;-57
2021/08/23 20:39:01;;;;;;;5.53;3.30;;;;;;;15.69;100.00;102207.44;7402126;19;20448;-57
2021/08/23 20:41:33;;;;;;;10.20;3.87;;;;;;;15.73;100.00;102213.66;7369756;19;20439;-56
2021/08/23 20:44:08;;;;;;;7.57;4.70;;;;;;;15.70;100.00;102210.94;7401102;19;20400;-56
2021/08/23 20:46:41;;;;;;;6.90;3.70;;;;;;;15.62;100.00;102208.00;7373895;19;20473;-55
2021/08/23 20:49:14;;;;;;;10.87;5.47;;;;;;;15.62;100.00;102208.00;7402534;19;20376;-57
2021/08/23 20:51:43;;;;;;;9.37;5.10;;;;;;;15.59;100.00;102213.97;7395718;19;20501;-57
2021/08/23 20:54:13;;;;;;;7.60;3.27;;;;;;;15.50;100.00;102217.03;7402341;19;20384;-54
2021/08/23 20:56:42;;;;;;;6.63;2.97;;;;;;;15.47;100.00;102219.50;7367755;19;20463;-55
2021/08/23 20:59:14;;;;;;;5.63;3.57;;;;;;;15.53;100.00;102230.19;7401849;19;20896;-56
2021/08/23 21:01:44;;;;;;;7.90;3.43;;;;;;;15.62;100.00;102234.00;7380264;19;20536;-56
2021/08/23 21:04:17;;;;;;;7.93;3.90;;;;;;;15.49;100.00;102238.66;7401934;19;20404;-54
2021/08/23 21:06:47;;;;;;;8.17;3.00;;;;;;;15.32;100.00;102235.31;7379561;19;20425;-56
2021/08/23 21:09:17;;;;;;;11.23;3.20;;;;;;;15.22;100.00;102249.59;7402247;19;20400;-55
2021/08/23 21:11:47;;;;;;;7.87;3.67;;;;;;;15.14;100.00;102242.25;7378551;19;20419;-56
2021/08/23 21:14:20;;;;;;;6.97;3.67;;;;;;;15.15;100.00;102246.63;7401732;19;20459;-56
2021/08/23 21:16:49;;;;;;;8.57;3.13;;;;;;;15.15;100.00;102241.44;7374883;19;20474;-55
2021/08/23 21:19:19;;;;;;;5.93;3.47;;;;;;;15.14;100.00;102250.97;7402222;19;20402;-51
2021/08/23 21:21:49;;;;;;;6.50;3.70;;;;;;;15.06;100.00;102255.78;7376485;19;20696;-57
2021/08/23 21:24:19;;;;;;;17.20;8.77;;;;;;;15.01;100.00;102249.47;7401677;19;20393;-57
2021/08/23 21:26:48;;;;;;;22.77;13.37;;;;;;;15.02;100.00;102253.84;7370776;19;20923;-53
2021/08/23 21:29:20;;;;;;;8.80;4.93;;;;;;;15.00;100.00;102258.09;7401688;19;20739;-56
2021/08/23 21:31:50;;;;;;;11.03;5.53;;;;;;;15.06;100.00;102258.38;7367312;19;20522;-56
2021/08/23 21:34:20;;;;;;;15.23;6.93;;;;;;;15.07;100.00;102259.28;7399659;19;20396;-57
2021/08/23 21:36:49;;;;;;;12.33;6.33;;;;;;;15.02;100.00;102251.25;7375056;19;20462;-55
2021/08/23 21:39:19;;;;;;;10.67;5.80;;;;;;;14.99;100.00;102266.72;7401566;19;20709;-55
2021/08/23 21:41:49;;;;;;;5.53;3.70;;;;;;;14.88;100.00;102266.22;7373774;19;20898;-56
2021/08/23 21:44:21;;;;;;;16.40;9.17;;;;;;;14.96;100.00;102258.75;7401149;19;20399;-56
2021/08/23 21:46:50;;;;;;;7.47;3.60;;;;;;;14.85;100.00;102266.06;7401139;19;20453;-56
2021/08/23 21:49:20;;;;;;;10.67;6.00;;;;;;;14.89;100.00;102270.59;7408819;19;20471;-56
2021/08/23 21:51:49;;;;;;;9.30;3.13;;;;;;;14.84;100.00;102269.47;7402102;19;20411;-57
2021/08/23 21:54:19;;;;;;;4.93;3.10;;;;;;;14.74;100.00;102272.41;7408341;19;20463;-54
2021/08/23 21:56:48;;;;;;;7.57;3.17;;;;;;;14.72;100.00;102270.63;7380624;19;20400;-55
2021/08/23 21:59:20;;;;;;;10.03;6.77;;;;;;;14.70;100.00;102276.56;7407151;19;20467;-57
2021/08/23 22:01:53;;;;;;;7.13;2.80;;;;;;;14.68;100.00;102275.59;7379451;19;20403;-57
2021/08/23 22:04:23;;;;;;;10.47;6.27;;;;;;;14.67;100.00;102274.69;7407109;19;20392;-54
2021/08/23 22:06:52;;;;;;;12.33;6.27;;;;;;;14.64;100.00;102279.75;7379804;19;20423;-58
2021/08/23 22:09:22;;;;;;;5.80;2.70;;;;;;;14.51;100.00;102279.97;7407030;19;20396;-56
2021/08/23 22:11:51;;;;;;;6.47;3.10;;;;;;;14.55;100.00;102285.38;7400861;19;20735;-54
2021/08/23 22:14:23;;;;;;;7.20;3.00;;;;;;;14.50;100.00;102288.56;7407497;19;20398;-52
2021/08/23 22:16:53;;;;;;;13.57;4.20;;;;;;;14.41;100.00;102281.22;7373880;19;20957;-57
2021/08/23 22:19:22;;;;;;;12.27;3.23;;;;;;;14.47;100.00;102288.41;7406912;19;20397;-57
2021/08/23 22:21:52;;;;;;;9.70;3.17;;;;;;;14.41;100.00;102292.47;7379518;19;20498;-57
2021/08/23 22:24:21;;;;;;;12.03;3.10;;;;;;;14.36;100.00;102293.94;7406068;19;20472;-57
2021/08/23 22:26:51;;;;;;;4.73;3.07;;;;;;;14.29;100.00;102297.03;7403319;19;20510;-55
2021/08/23 22:29:20;;;;;;;7.57;3.60;;;;;;;14.25;100.00;102297.72;7407472;19;20443;-55
2021/08/23 22:31:53;;;;;;;14.43;3.20;;;;;;;14.23;100.00;102309.69;7389696;19;20475;-56
2021/08/23 22:34:23;;;;;;;7.00;4.23;;;;;;;14.23;100.00;102307.09;7406954;19;20387;-57
2021/08/23 22:36:52;;;;;;;12.53;4.03;;;;;;;14.11;100.00;102310.84;7399376;19;20515;-57
2021/08/23 22:39:24;;;;;;;8.20;3.20;;;;;;;14.10;100.00;102310.78;7407436;19;20845;-56
2021/08/23 22:41:54;;;;;;;12.50;4.77;;;;;;;14.08;100.00;102318.50;7398800;19;20467;-52
2021/08/23 22:44:23;;;;;;;10.13;4.90;;;;;;;14.04;100.00;102316.53;7406831;19;20398;-56
2021/08/23 22:46:55;;;;;;;7.60;4.10;;;;;;;13.94;100.00;102320.34;7397866;19;20463;-57
2021/08/23 22:49:25;;;;;;;13.87;4.27;;;;;;;13.86;100.00;102324.25;7406975;19;20737;-55
2021/08/23 22:51:54;;;;;;;11.23;3.40;;;;;;;13.83;100.00;102319.78;7373639;19;20427;-55
2021/08/23 22:54:24;;;;;;;8.93;3.40;;;;;;;13.83;100.00;102321.47;7405492;19;20459;-53
2021/08/23 22:56:53;;;;;;;5.63;3.30;;;;;;;13.76;100.00;102325.47;7398194;19;20938;-53
2021/08/23 22:59:23;;;;;;;8.03;3.50;;;;;;;13.72;100.00;102331.28;7406766;19;20482;-56
2021/08/23 23:01:52;;;;;;;6.50;3.60;;;;;;;13.64;100.00;102317.91;7375841;19;20518;-58
2021/08/23 23:04:24;;;;;;;4.77;3.10;;;;;;;13.58;100.00;102326.25;7405050;19;20702;-57
2021/08/23 23:06:54;;;;;;;5.43;3.07;;;;;;;13.54;100.00;102333.78;7378575;19;20490;-55
2021/08/23 23:09:23;;;;;;;4.43;3.40;;;;;;;13.44;100.00;102329.75;7405429;19;20778;-56
2021/08/23 23:11:53;;;;;;;7.00;3.70;;;;;;;13.46;100.00;102331.66;7398966;19;20510;-55
2021/08/23 23:14:22;;;;;;;4.90;3.50;;;;;;;13.44;100.00;102334.94;7405727;19;20455;-57
2021/08/23 23:16:52;;;;;;;5.00;3.50;;;;;;;13.39;100.00;102331.19;7398842;19;20469;-57
2021/08/23 23:19:22;;;;;;;15.73;9.53;;;;;;;13.37;100.00;102342.38;7405853;19;20478;-55
2021/08/23 23:21:54;;;;;;;10.83;5.03;;;;;;;13.32;100.00;102341.22;7370923;19;20399;-56
2021/08/23 23:24:24;;;;;;;15.53;9.43;;;;;;;13.37;100.00;102349.25;7404387;19;20399;-52
2021/08/23 23:26:54;;;;;;;8.63;5.73;;;;;;;13.46;100.00;102347.22;7375180;19;20438;-56
2021/08/23 23:29:23;;;;;;;12.20;5.30;;;;;;;13.48;100.00;102360.25;7404338;19;20741;-55
2021/08/23 23:31:53;;;;;;;7.00;4.67;;;;;;;13.54;100.00;102352.81;7391014;19;20490;-55
2021/08/23 23:34:22;;;;;;;11.27;5.67;;;;;;;13.56;100.00;102353.81;7397920;19;20455;-55
2021/08/23 23:36:54;;;;;;;6.40;3.70;;;;;;;13.52;100.00;102349.25;7370893;19;20767;-55
2021/08/23 23:39:24;;;;;;;6.73;3.63;;;;;;;13.48;100.00;102344.69;7397910;19;20396;-55
2021/08/23 23:41:53;;;;;;;7.13;3.63;;;;;;;13.37;100.00;102342.38;7370693;19;20490;-54
2021/08/23 23:44:23;;;;;;;3.90;3.03;;;;;;;13.31;100.00;102338.53;7400398;19;20420;-57
2021/08/23 23:46:52;;;;;;;5.67;3.00;;;;;;;13.33;100.00;102350.78;7371279;19;20415;-56
2021/08/23 23:49:22;;;;;;;11.10;4.80;;;;;;;13.35;100.00;102343.97;7397839;19;20471;-55
2021/08/23 23:51:51;;;;;;;8.73;3.27;;;;;;;13.33;100.00;102350.78;7390712;19;20443;-57
2021/08/23 23:54:23;;;;;;;7.73;3.40;;;;;;;13.30;100.00;102353.22;7398247;19;20725;-57
2021/08/23 23:56:53;;;;;;;7.63;3.30;;;;;;;13.20;100.00;102344.03;7367033;19;20743;-57
2021/08/23 23:59:22;;;;;;;11.27;3.50;;;;;;;13.16;100.00;102354.13;7396808;19;20882;-56
